| time (UTC) | temp F | wind direction | speed MPH | gust MPH | rain 1hr in | rain 24hr in | rain mn in | humidity % | barometer mb |
| 20260502162041 | 69 | 60 | 2.0 | 7.0 | 0.00 | 1.46 | 0.00 | 64 | 1020.7 |
| 20260502161552 | 69 | 300 | 1.0 | 3.0 | 0.00 | 1.46 | 0.00 | 65 | 1020.7 |
| 20260502161041 | 69 | 97 | 1.0 | 7.0 | 0.00 | 1.46 | 0.00 | 66 | 1020.6 |
| 20260502160541 | 68 | 106 | 1.0 | 7.0 | 0.00 | 1.46 | 0.00 | 67 | 1020.7 |
| 20260502152044 | 64 | 0 | 2.0 | 7.0 | 0.00 | 1.47 | 0.00 | 77 | 1020.6 |
| 20260502151600 | 64 | 119 | 2.0 | 5.0 | 0.00 | 1.47 | 0.00 | 81 | 1020.6 |
| 20260502151044 | 64 | 166 | 1.0 | 5.0 | 0.00 | 1.47 | 0.00 | 81 | 1020.6 |
| 20260502150548 | 63 | 176 | 1.0 | 5.0 | 0.00 | 1.47 | 0.00 | 83 | 1020.7 |
| 20260502130545 | 53 | 0 | 0.0 | 1.0 | 0.00 | 2.14 | 0.00 | 96 | 1019.4 |
| 20260502123545 | 51 | 0 | 0.0 | 1.0 | 0.00 | 2.23 | 0.00 | 96 | 1018.8 |
| 20260502123053 | 51 | 0 | 0.0 | 1.0 | 0.00 | 2.23 | 0.00 | 96 | 1018.8 |
| 20260502122546 | 51 | 0 | 0.0 | 1.0 | 0.00 | 2.23 | 0.00 | 96 | 1018.7 |
| 20260502122043 | 50 | 0 | 0.0 | 1.0 | 0.00 | 2.23 | 0.00 | 96 | 1018.7 |
| 20260502121553 | 50 | 0 | 0.0 | 0.0 | 0.00 | 2.23 | 0.00 | 96 | 1018.8 |
| 20260502121046 | 50 | 0 | 0.0 | 0.0 | 0.00 | 2.23 | 0.00 | 96 | 1018.8 |
| 20260502120544 | 50 | 0 | 0.0 | 1.0 | 0.00 | 2.23 | 0.00 | 96 | 1018.7 |
| 20260502115548 | 50 | 73 | 0.0 | 0.0 | 0.00 | 2.26 | 0.00 | 96 | 1018.5 |
| 20260502115044 | 50 | 0 | 0.0 | 0.0 | 0.00 | 2.26 | 0.00 | 96 | 1018.5 |
| 20260502114604 | 50 | 0 | 0.0 | 1.0 | 0.00 | 2.26 | 0.00 | 96 | 1018.4 |
| 20260502114044 | 50 | 0 | 0.0 | 1.0 | 0.00 | 2.26 | 0.00 | 96 | 1018.5 |
| 20260502113547 | 50 | 0 | 0.0 | 0.0 | 0.00 | 2.26 | 0.00 | 96 | 1018.4 |
| 20260502113050 | 50 | 0 | 0.0 | 1.0 | 0.00 | 2.26 | 0.00 | 96 | 1018.3 |
| 20260502112544 | 50 | 0 | 0.0 | 1.0 | 0.00 | 2.26 | 0.00 | 96 | 1018.3 |
| 20260502112046 | 51 | 0 | 0.0 | 2.0 | 0.00 | 2.26 | 0.00 | 96 | 1018.1 |
| 20260502111554 | 51 | 0 | 0.0 | 2.0 | 0.00 | 2.26 | 0.00 | 96 | 1018.1 |
| 20260502111044 | 51 | 0 | 0.0 | 1.0 | 0.00 | 2.26 | 0.00 | 96 | 1018.1 |
| 20260502110546 | 51 | 0 | 0.0 | 1.0 | 0.00 | 2.26 | 0.00 | 96 | 1018.1 |
| 20260502110053 | 51 | 0 | 0.0 | 1.0 | 0.00 | 2.26 | 0.00 | 96 | 1017.9 |
| 20260502105548 | 51 | 0 | 0.0 | 1.0 | 0.00 | 2.51 | 0.00 | 96 | 1017.9 |
| 20260502105044 | 51 | 0 | 0.0 | 1.0 | 0.00 | 2.51 | 0.00 | 96 | 1017.8 |
| 20260502104553 | 51 | 0 | 0.0 | 1.0 | 0.00 | 2.51 | 0.00 | 96 | 1018.0 |
| 20260502104045 | 51 | 89 | 0.0 | 1.0 | 0.00 | 2.51 | 0.00 | 96 | 1017.9 |
| 20260502103545 | 51 | 0 | 0.0 | 2.0 | 0.00 | 2.51 | 0.00 | 96 | 1017.9 |
| 20260502103046 | 51 | 0 | 0.0 | 2.0 | 0.00 | 2.51 | 0.00 | 96 | 1017.8 |
| 20260502102545 | 51 | 0 | 0.0 | 2.0 | 0.00 | 2.51 | 0.00 | 96 | 1017.7 |
| 20260502102044 | 51 | 91 | 0.0 | 1.0 | 0.00 | 2.51 | 0.00 | 96 | 1017.5 |
| 20260502101615 | 51 | 0 | 0.0 | 1.0 | 0.00 | 2.51 | 0.00 | 96 | 1017.4 |
| 20260502101044 | 51 | 0 | 0.0 | 1.0 | 0.00 | 2.51 | 0.00 | 96 | 1017.4 |
| 20260502100544 | 51 | 104 | 0.0 | 2.0 | 0.00 | 2.51 | 0.00 | 96 | 1017.2 |
| 20260502091044 | 52 | 0 | 0.0 | 1.0 | 0.00 | 3.13 | 0.00 | 95 | 1016.2 |
| 20260502090545 | 51 | 104 | 0.0 | 1.0 | 0.00 | 3.13 | 0.00 | 95 | 1016.1 |
| 20260502090106 | 51 | 104 | 0.0 | 1.0 | 0.00 | 3.13 | 0.00 | 95 | 1016.2 |
| 20260502080108 | 52 | 0 | 0.0 | 0.0 | 0.00 | 3.35 | 0.00 | 95 | 1016.2 |
| 20260502071044 | 53 | 0 | 0.0 | 3.0 | 0.00 | 3.41 | 0.00 | 95 | 1016.3 |
| 20260502070544 | 53 | 117 | 0.0 | 4.0 | 0.00 | 3.41 | 0.00 | 95 | 1016.3 |
| 20260502070104 | 53 | 111 | 1.0 | 4.0 | 0.00 | 3.41 | 0.00 | 95 | 1016.2 |
| 20260502065543 | 53 | 0 | 0.0 | 3.0 | 0.00 | 3.46 | 0.00 | 95 | 1016.1 |
| 20260502065043 | 53 | 105 | 0.0 | 2.0 | 0.00 | 3.46 | 0.00 | 95 | 1016.0 |
| 20260502064554 | 53 | 0 | 0.0 | 2.0 | 0.00 | 3.46 | 0.00 | 95 | 1016.0 |
| 20260502064044 | 53 | 0 | 0.0 | 5.0 | 0.00 | 3.46 | 0.00 | 95 | 1016.0 |
| 20260502063550 | 53 | 0 | 1.0 | 5.0 | 0.00 | 3.46 | 0.00 | 95 | 1016.0 |
| 20260502063058 | 53 | 173 | 0.0 | 4.0 | 0.00 | 3.46 | 0.00 | 95 | 1016.0 |
| 20260502062547 | 53 | 251 | 0.0 | 4.0 | 0.00 | 3.46 | 0.00 | 95 | 1015.9 |
| 20260502062138 | 53 | 108 | 1.0 | 4.0 | 0.00 | 3.46 | 0.00 | 95 | 1016.0 |
| 20260502062053 | 53 | 108 | 1.0 | 4.0 | 0.00 | 3.46 | 0.00 | 95 | 1016.0 |
| 20260502061549 | 53 | 0 | 1.0 | 4.0 | 0.00 | 3.46 | 0.00 | 95 | 1015.9 |
| 20260502061044 | 53 | 34 | 1.0 | 3.0 | 0.00 | 3.46 | 0.00 | 95 | 1016.0 |
| 20260502060544 | 53 | 113 | 1.0 | 3.0 | 0.00 | 3.46 | 0.00 | 95 | 1015.9 |
| 20260502060052 | 53 | 139 | 1.0 | 4.0 | 0.00 | 3.46 | 0.00 | 95 | 1016.0 |
| 20260502055543 | 53 | 131 | 1.0 | 4.0 | 0.00 | 3.63 | 0.00 | 95 | 1016.0 |
| 20260502055044 | 54 | 251 | 1.0 | 5.0 | 0.00 | 3.63 | 0.00 | 95 | 1016.0 |
| 20260502054556 | 54 | 183 | 1.0 | 5.0 | 0.00 | 3.63 | 0.00 | 95 | 1016.0 |
| 20260502054044 | 54 | 0 | 0.0 | 2.0 | 0.00 | 3.63 | 0.00 | 95 | 1016.1 |
| 20260502053544 | 54 | 110 | 0.0 | 2.0 | 0.00 | 3.63 | 0.00 | 95 | 1016.2 |
| 20260502053048 | 54 | 157 | 0.0 | 2.0 | 0.00 | 3.63 | 0.00 | 95 | 1016.3 |
| 20260502052545 | 54 | 104 | 0.0 | 3.0 | 0.00 | 3.63 | 0.00 | 95 | 1016.2 |
| 20260502052046 | 54 | 273 | 0.0 | 3.0 | 0.00 | 3.63 | 0.00 | 95 | 1016.3 |
| 20260502051603 | 54 | 285 | 1.0 | 3.0 | 0.01 | 3.63 | 0.00 | 95 | 1016.2 |
| 20260502051043 | 54 | 0 | 0.0 | 4.0 | 0.01 | 3.63 | 0.00 | 95 | 1016.3 |
| 20260502050541 | 54 | 82 | 0.0 | 5.0 | 0.01 | 3.63 | 0.00 | 95 | 1016.2 |
| 20260502050050 | 54 | 134 | 1.0 | 5.0 | 0.01 | 3.63 | 0.00 | 95 | 1016.2 |
| 20260502045547 | 54 | 103 | 1.0 | 4.0 | 0.01 | 3.63 | 3.63 | 95 | 1016.2 |
| 20260502045047 | 54 | 150 | 2.0 | 6.0 | 0.01 | 3.63 | 3.63 | 95 | 1016.2 |
| 20260502044552 | 54 | 165 | 2.0 | 6.0 | 0.01 | 3.63 | 3.63 | 95 | 1016.0 |
| 20260502044047 | 54 | 173 | 1.0 | 5.0 | 0.01 | 3.63 | 3.63 | 95 | 1016.2 |
| 20260502043544 | 54 | 173 | 1.0 | 4.0 | 0.01 | 3.63 | 3.63 | 95 | 1016.1 |
| 20260502043048 | 54 | 93 | 2.0 | 4.0 | 0.01 | 3.63 | 3.63 | 95 | 1016.3 |
| 20260502042553 | 54 | 263 | 2.0 | 7.0 | 0.01 | 3.63 | 3.63 | 95 | 1016.2 |
| 20260502042043 | 55 | 143 | 2.0 | 7.0 | 0.01 | 3.63 | 3.63 | 95 | 1016.2 |
| 20260502041546 | 55 | 140 | 1.0 | 7.0 | 0.00 | 3.62 | 3.62 | 95 | 1016.2 |
| 20260502041044 | 55 | 158 | 1.0 | 3.0 | 0.00 | 3.62 | 3.62 | 95 | 1016.0 |
| 20260502040544 | 55 | 113 | 1.0 | 3.0 | 0.00 | 3.62 | 3.62 | 96 | 1015.9 |
| 20260502040057 | 55 | 118 | 1.0 | 4.0 | 0.00 | 3.62 | 3.62 | 95 | 1015.9 |
| 20260502035548 | 55 | 33 | 1.0 | 4.0 | 0.00 | 3.62 | 3.62 | 95 | 1015.8 |
| 20260502035048 | 55 | 68 | 1.0 | 4.0 | 0.00 | 3.62 | 3.62 | 95 | 1015.8 |
| 20260502034548 | 55 | 165 | 1.0 | 4.0 | 0.01 | 3.62 | 3.62 | 95 | 1015.7 |
| 20260502034048 | 55 | 0 | 1.0 | 3.0 | 0.01 | 3.62 | 3.62 | 95 | 1015.7 |
| 20260502033544 | 55 | 0 | 1.0 | 4.0 | 0.02 | 3.62 | 3.62 | 95 | 1015.6 |
| 20260502033046 | 55 | 97 | 2.0 | 4.0 | 0.02 | 3.62 | 3.62 | 95 | 1015.6 |
| 20260502032544 | 54 | 119 | 0.0 | 3.0 | 0.03 | 3.62 | 3.62 | 95 | 1015.6 |
| 20260502032048 | 55 | 85 | 1.0 | 4.0 | 0.03 | 3.62 | 3.62 | 95 | 1015.4 |
| 20260502031551 | 54 | 257 | 1.0 | 4.0 | 0.03 | 3.62 | 3.62 | 95 | 1014.5 |
| 20260502031044 | 55 | 0 | 2.0 | 4.0 | 0.03 | 3.62 | 3.62 | 95 | 1014.7 |
| 20260502030544 | 55 | 129 | 1.0 | 3.0 | 0.04 | 3.62 | 3.62 | 95 | 1014.7 |
| 20260502030100 | 55 | 137 | 0.0 | 3.0 | 0.04 | 3.62 | 3.62 | 95 | 1014.8 |
| 20260502025544 | 55 | 0 | 1.0 | 4.0 | 0.04 | 3.62 | 3.62 | 95 | 1015.0 |
| 20260502025048 | 55 | 88 | 1.0 | 8.0 | 0.05 | 3.62 | 3.62 | 95 | 1015.0 |
| 20260502024552 | 55 | 120 | 1.0 | 8.0 | 0.06 | 3.61 | 3.61 | 95 | 1014.7 |
| 20260502024044 | 55 | 59 | 1.0 | 3.0 | 0.08 | 3.61 | 3.61 | 95 | 1014.4 |
| 20260502023549 | 55 | 275 | 0.0 | 5.0 | 0.08 | 3.60 | 3.60 | 95 | 1014.7 |
| 20260502023120 | 55 | 117 | 0.0 | 5.0 | 0.08 | 3.59 | 3.59 | 95 | 1015.0 |
| 20260502022543 | 55 | 163 | 1.0 | 5.0 | 0.08 | 3.59 | 3.59 | 95 | 1015.1 |
| 20260502022048 | 55 | 0 | 2.0 | 4.0 | 0.09 | 3.59 | 3.59 | 95 | 1014.9 |
| 20260502021549 | 55 | 129 | 1.0 | 3.0 | 0.09 | 3.59 | 3.59 | 95 | 1014.4 |
| 20260502021047 | 56 | 147 | 0.0 | 5.0 | 0.09 | 3.59 | 3.59 | 95 | 1014.3 |
| 20260502020543 | 56 | 131 | 2.0 | 5.0 | 0.09 | 3.58 | 3.58 | 95 | 1014.3 |
| 20260502020103 | 56 | 110 | 1.0 | 3.0 | 0.09 | 3.58 | 3.58 | 95 | 1014.1 |
| 20260502015544 | 56 | 136 | 1.0 | 3.0 | 0.09 | 3.58 | 3.58 | 95 | 1013.9 |
| 20260502015050 | 56 | 153 | 1.0 | 3.0 | 0.08 | 3.57 | 3.57 | 95 | 1014.0 |
| 20260502014554 | 56 | 92 | 0.0 | 1.0 | 0.07 | 3.55 | 3.55 | 95 | 1013.6 |
| 20260502014043 | 56 | 112 | 0.0 | 1.0 | 0.07 | 3.53 | 3.53 | 95 | 1013.5 |
| 20260502013543 | 56 | 112 | 0.0 | 6.0 | 0.07 | 3.52 | 3.52 | 95 | 1014.0 |
| 20260502013103 | 56 | 316 | 1.0 | 6.0 | 0.07 | 3.51 | 3.51 | 95 | 1014.0 |
| 20260502012552 | 56 | 202 | 0.0 | 4.0 | 0.09 | 3.51 | 3.51 | 95 | 1014.1 |
| 20260502012048 | 56 | 105 | 1.0 | 4.0 | 0.09 | 3.50 | 3.50 | 95 | 1013.5 |
| 20260502011549 | 56 | 0 | 0.0 | 4.0 | 0.10 | 3.50 | 3.50 | 95 | 1013.1 |
| 20260502011043 | 56 | 141 | 1.0 | 8.0 | 0.11 | 3.50 | 3.50 | 95 | 1012.7 |
| 20260502010543 | 56 | 139 | 2.0 | 8.0 | 0.11 | 3.49 | 3.49 | 95 | 1012.4 |
| 20260502010050 | 56 | 158 | 2.0 | 8.0 | 0.11 | 3.49 | 3.49 | 95 | 1012.4 |
| 20260502005659 | 57 | 259 | 1.0 | 4.0 | 0.12 | 3.49 | 3.49 | 95 | 1012.6 |
| 20260502005549 | 57 | 259 | 1.0 | 4.0 | 0.12 | 3.49 | 3.49 | 95 | 1012.6 |
| 20260502005048 | 57 | 113 | 1.0 | 3.0 | 0.12 | 3.48 | 3.48 | 95 | 1012.3 |
| 20260502004624 | 57 | 136 | 1.0 | 3.0 | 0.13 | 3.47 | 3.47 | 95 | 1012.5 |
| 20260502004044 | 57 | 139 | 1.0 | 3.0 | 0.14 | 3.46 | 3.46 | 95 | 1012.7 |
| 20260502003545 | 57 | 170 | 1.0 | 3.0 | 0.15 | 3.45 | 3.45 | 95 | 1012.5 |
| 20260502003101 | 57 | 0 | 0.0 | 2.0 | 0.16 | 3.43 | 3.43 | 95 | 1012.3 |
| 20260502002543 | 57 | 113 | 0.0 | 4.0 | 0.21 | 3.42 | 3.42 | 95 | 1012.6 |
| 20260502002044 | 57 | 60 | 1.0 | 4.0 | 0.23 | 3.41 | 3.41 | 95 | 1012.8 |
| 20260502001610 | 57 | 123 | 0.0 | 5.0 | 0.22 | 3.40 | 3.40 | 95 | 1012.5 |
| 20260502001043 | 57 | 108 | 1.0 | 5.0 | 0.21 | 3.39 | 3.39 | 95 | 1012.2 |
| 20260502000543 | 57 | 98 | 2.0 | 4.0 | 0.20 | 3.38 | 3.38 | 95 | 1011.5 |
| 20260502000104 | 57 | 181 | 1.0 | 3.0 | 0.20 | 3.38 | 3.38 | 95 | 1011.0 |
| 20260501235545 | 57 | 160 | 1.0 | 3.0 | 0.19 | 3.37 | 3.37 | 95 | 1011.8 |
| 20260501235043 | 58 | 134 | 1.0 | 3.0 | 0.18 | 3.36 | 3.36 | 95 | 1011.8 |
| 20260501234605 | 58 | 7 | 1.0 | 3.0 | 0.16 | 3.34 | 3.34 | 95 | 1012.0 |
| 20260501234052 | 58 | 52 | 1.0 | 3.0 | 0.14 | 3.32 | 3.32 | 95 | 1012.3 |
| 20260501233545 | 58 | 155 | 1.0 | 3.0 | 0.12 | 3.30 | 3.30 | 95 | 1012.5 |
| 20260501233055 | 58 | 0 | 0.0 | 2.0 | 0.08 | 3.26 | 3.26 | 95 | 1012.9 |
| 20260501232549 | 58 | 93 | 0.0 | 6.0 | 0.02 | 3.20 | 3.20 | 95 | 1012.9 |
| 20260501232053 | 58 | 94 | 1.0 | 6.0 | 0.00 | 3.18 | 3.18 | 95 | 1012.7 |
| 20260501231556 | 58 | 65 | 2.0 | 6.0 | 0.00 | 3.18 | 3.18 | 95 | 1011.9 |
| 20260501231152 | 58 | 323 | 1.0 | 6.0 | 0.00 | 3.18 | 3.18 | 95 | 1010.4 |
| 20260501230551 | 58 | 217 | 2.0 | 6.0 | 0.01 | 3.18 | 3.18 | 95 | 1010.9 |
| 20260501230050 | 58 | 193 | 1.0 | 5.0 | 0.03 | 3.18 | 3.18 | 95 | 1011.1 |
| 20260501225544 | 58 | 240 | 2.0 | 5.0 | 0.05 | 3.18 | 3.18 | 95 | 1011.2 |
| 20260501225051 | 58 | 11 | 1.0 | 4.0 | 0.08 | 3.18 | 3.18 | 95 | 1011.6 |
| 20260501224551 | 58 | 192 | 1.0 | 4.0 | 0.10 | 3.18 | 3.18 | 95 | 1011.6 |
| 20260501224051 | 58 | 186 | 2.0 | 4.0 | 0.11 | 3.18 | 3.18 | 95 | 1011.4 |
| 20260501223546 | 59 | 85 | 1.0 | 4.0 | 0.11 | 3.18 | 3.18 | 95 | 1011.3 |
| 20260501223053 | 59 | 104 | 1.0 | 4.0 | 0.11 | 3.18 | 3.18 | 95 | 1011.4 |
| 20260501222545 | 59 | 88 | 1.0 | 4.0 | 0.12 | 3.18 | 3.18 | 95 | 1011.7 |
| 20260501222048 | 59 | 149 | 1.0 | 4.0 | 0.13 | 3.18 | 3.18 | 96 | 1011.8 |
| 20260501221549 | 59 | 154 | 1.0 | 6.0 | 0.14 | 3.18 | 3.18 | 95 | 1012.0 |
| 20260501221044 | 59 | 167 | 1.0 | 6.0 | 0.16 | 3.18 | 3.18 | 96 | 1011.9 |
| 20260501220544 | 59 | 185 | 2.0 | 6.0 | 0.16 | 3.17 | 3.17 | 96 | 1012.1 |
| 20260501220134 | 59 | 0 | 0.0 | 4.0 | 0.16 | 3.15 | 3.15 | 96 | 1012.2 |
| 20260501215544 | 59 | 257 | 0.0 | 2.0 | 0.16 | 3.13 | 3.13 | 96 | 1012.0 |
| 20260501215045 | 59 | 101 | 0.0 | 2.0 | 0.15 | 3.10 | 3.10 | 96 | 1012.0 |
| 20260501214553 | 59 | 0 | 0.0 | 2.0 | 0.14 | 3.08 | 3.08 | 95 | 1012.0 |
| 20260501214044 | 59 | 105 | 0.0 | 4.0 | 0.13 | 3.07 | 3.07 | 95 | 1012.0 |
| 20260501213544 | 59 | 113 | 1.0 | 5.0 | 0.14 | 3.07 | 3.07 | 95 | 1011.4 |
| 20260501213100 | 59 | 78 | 1.0 | 5.0 | 0.15 | 3.07 | 3.07 | 95 | 1011.3 |
| 20260501212544 | 59 | 134 | 0.0 | 4.0 | 0.15 | 3.06 | 3.06 | 95 | 1010.3 |
| 20260501212045 | 59 | 178 | 1.0 | 4.0 | 0.15 | 3.05 | 3.05 | 95 | 1010.9 |
| 20260501211556 | 59 | 112 | 2.0 | 4.0 | 0.14 | 3.04 | 3.04 | 95 | 1010.2 |
| 20260501211044 | 59 | 119 | 1.0 | 4.0 | 0.13 | 3.02 | 3.02 | 95 | 1010.1 |
| 20260501210544 | 60 | 267 | 0.0 | 4.0 | 0.13 | 3.01 | 3.01 | 95 | 1010.8 |
| 20260501210103 | 60 | 105 | 1.0 | 2.0 | 0.13 | 2.99 | 2.99 | 95 | 1011.1 |
| 20260501205545 | 60 | 229 | 0.0 | 3.0 | 0.11 | 2.97 | 2.97 | 96 | 1011.4 |
| 20260501205045 | 60 | 0 | 0.0 | 4.0 | 0.10 | 2.95 | 2.95 | 95 | 1011.2 |
| 20260501204558 | 60 | 140 | 1.0 | 4.0 | 0.09 | 2.94 | 2.94 | 95 | 1011.0 |
| 20260501204044 | 60 | 190 | 1.0 | 4.0 | 0.09 | 2.94 | 2.94 | 95 | 1010.7 |
| 20260501203544 | 60 | 284 | 1.0 | 2.0 | 0.09 | 2.93 | 2.93 | 95 | 1010.8 |
| 20260501203056 | 60 | 155 | 0.0 | 2.0 | 0.08 | 2.92 | 2.92 | 96 | 1011.0 |
| 20260501202544 | 60 | 70 | 0.0 | 3.0 | 0.07 | 2.91 | 2.91 | 96 | 1011.1 |
| 20260501202044 | 60 | 0 | 0.0 | 3.0 | 0.07 | 2.90 | 2.90 | 96 | 1010.9 |
| 20260501201546 | 60 | 0 | 0.0 | 3.0 | 0.08 | 2.90 | 2.90 | 96 | 1010.7 |
| 20260501201045 | 60 | 0 | 1.0 | 3.0 | 0.07 | 2.89 | 2.89 | 96 | 1010.1 |
| 20260501200544 | 60 | 149 | 0.0 | 2.0 | 0.08 | 2.88 | 2.88 | 96 | 1010.1 |
| 20260501200053 | 60 | 117 | 0.0 | 3.0 | 0.08 | 2.86 | 2.86 | 96 | 1010.1 |
| 20260501195545 | 60 | 0 | 0.0 | 3.0 | 0.10 | 2.86 | 2.86 | 96 | 1010.4 |
| 20260501195044 | 60 | 146 | 2.0 | 3.0 | 0.11 | 2.85 | 2.85 | 96 | 1010.1 |
| 20260501194550 | 61 | 83 | 0.0 | 3.0 | 0.13 | 2.85 | 2.85 | 96 | 1010.1 |
| 20260501194043 | 60 | 86 | 1.0 | 4.0 | 0.14 | 2.85 | 2.85 | 96 | 1010.3 |
| 20260501193544 | 60 | 0 | 1.0 | 4.0 | 0.16 | 2.84 | 2.84 | 95 | 1009.5 |
| 20260501193050 | 61 | 234 | 0.0 | 2.0 | 0.19 | 2.84 | 2.84 | 96 | 1009.7 |
| 20260501192544 | 60 | 0 | 0.0 | 4.0 | 0.21 | 2.84 | 2.84 | 96 | 1009.6 |
| 20260501192044 | 60 | 0 | 1.0 | 4.0 | 0.25 | 2.83 | 2.83 | 95 | 1009.7 |
| 20260501191553 | 60 | 115 | 1.0 | 4.0 | 0.30 | 2.82 | 2.82 | 96 | 1009.6 |
| 20260501191045 | 60 | 178 | 2.0 | 4.0 | 0.34 | 2.81 | 2.81 | 95 | 1009.8 |
| 20260501190544 | 60 | 0 | 0.0 | 2.0 | 0.35 | 2.80 | 2.80 | 95 | 1010.6 |
| 20260501190057 | 60 | 0 | 1.0 | 6.0 | 0.37 | 2.78 | 2.78 | 95 | 1010.3 |
| 20260501185544 | 60 | 58 | 0.0 | 7.0 | 0.38 | 2.76 | 2.76 | 95 | 1010.1 |
| 20260501185044 | 60 | 250 | 0.0 | 7.0 | 0.37 | 2.74 | 2.74 | 95 | 1009.3 |
| 20260501184549 | 60 | 198 | 1.0 | 3.0 | 0.36 | 2.72 | 2.72 | 95 | 1009.4 |
| 20260501184047 | 60 | 148 | 1.0 | 3.0 | 0.35 | 2.71 | 2.71 | 95 | 1009.3 |
| 20260501183541 | 60 | 89 | 0.0 | 3.0 | 0.33 | 2.68 | 2.68 | 95 | 1009.4 |
| 20260501183059 | 60 | 0 | 1.0 | 3.0 | 0.31 | 2.65 | 2.65 | 95 | 1009.1 |
| 20260501182540 | 60 | 131 | 0.0 | 2.0 | 0.29 | 2.63 | 2.63 | 95 | 1009.7 |
| 20260501182047 | 60 | 43 | 0.0 | 2.0 | 0.23 | 2.57 | 2.57 | 95 | 1010.1 |
| 20260501181603 | 60 | 181 | 0.0 | 2.0 | 0.17 | 2.51 | 2.51 | 95 | 1010.1 |
| 20260501181044 | 60 | 0 | 0.0 | 4.0 | 0.13 | 2.46 | 2.46 | 95 | 1011.0 |
| 20260501180541 | 60 | 68 | 0.0 | 6.0 | 0.12 | 2.45 | 2.45 | 95 | 1010.4 |
| 20260501180050 | 60 | 143 | 2.0 | 6.0 | 0.09 | 2.41 | 2.41 | 95 | 1010.4 |
| 20260501175548 | 60 | 155 | 2.0 | 4.0 | 0.07 | 2.38 | 2.38 | 95 | 1010.8 |
| 20260501175044 | 61 | 39 | 1.0 | 5.0 | 0.07 | 2.36 | 2.36 | 95 | 1011.0 |
| 20260501174546 | 61 | 205 | 1.0 | 5.0 | 0.08 | 2.35 | 2.35 | 95 | 1011.1 |
| 20260501174044 | 61 | 58 | 1.0 | 3.0 | 0.09 | 2.35 | 2.35 | 95 | 1010.9 |
| 20260501173541 | 61 | 172 | 1.0 | 3.0 | 0.10 | 2.34 | 2.34 | 95 | 1011.1 |
| 20260501173050 | 61 | 149 | 1.0 | 2.0 | 0.11 | 2.33 | 2.33 | 95 | 1011.1 |
| 20260501172543 | 61 | 0 | 0.0 | 3.0 | 0.13 | 2.33 | 2.33 | 95 | 1011.3 |
| 20260501172041 | 61 | 105 | 1.0 | 3.0 | 0.14 | 2.33 | 2.33 | 95 | 1011.2 |
| 20260501171551 | 60 | 158 | 2.0 | 3.0 | 0.15 | 2.33 | 2.33 | 95 | 1011.2 |
| 20260501171044 | 60 | 140 | 1.0 | 3.0 | 0.14 | 2.33 | 2.33 | 95 | 1011.5 |
| 20260501170544 | 60 | 0 | 0.0 | 3.0 | 0.15 | 2.33 | 2.33 | 95 | 1011.3 |
| 20260501170058 | 60 | 39 | 1.0 | 3.0 | 0.15 | 2.32 | 2.32 | 95 | 1011.9 |
| 20260501165548 | 60 | 138 | 1.0 | 3.0 | 0.14 | 2.31 | 2.31 | 95 | 1011.9 |
| 20260501165047 | 60 | 105 | 1.0 | 3.0 | 0.13 | 2.30 | 2.30 | 95 | 1011.7 |
| 20260501164550 | 60 | 154 | 1.0 | 5.0 | 0.11 | 2.28 | 2.28 | 95 | 1011.8 |
| 20260501164044 | 60 | 117 | 2.0 | 5.0 | 0.09 | 2.26 | 2.26 | 95 | 1012.7 |
| 20260501163544 | 60 | 254 | 0.0 | 4.0 | 0.08 | 2.25 | 2.25 | 95 | 1013.1 |
| 20260501163057 | 60 | 121 | 1.0 | 4.0 | 0.06 | 2.23 | 2.23 | 95 | 1012.9 |
| 20260501162544 | 60 | 248 | 2.0 | 5.0 | 0.04 | 2.21 | 2.21 | 95 | 1012.5 |